createdAt,value
2022-10-31T00:17:01.731Z,98514.53
2022-10-31T00:47:05.667Z,98489.44
2022-10-31T01:17:09.680Z,98508.75
2022-10-31T01:47:17.217Z,98484.50
2022-10-31T02:17:21.244Z,98481.59
2022-10-31T02:47:29.364Z,98473.50
2022-10-31T03:48:11.279Z,98470.03
2022-10-31T04:18:15.644Z,98469.47
2022-10-31T04:48:19.774Z,98466.69
2022-10-31T05:18:23.887Z,98456.50
2022-10-31T05:48:27.978Z,98441.28
2022-10-31T06:18:32.065Z,98430.56
2022-10-31T06:48:36.431Z,98444.78
2022-10-31T07:18:40.668Z,98451.53
2022-10-31T07:48:44.783Z,98460.75
2022-10-31T08:18:49.022Z,98468.47
2022-10-31T08:48:53.397Z,98458.31
2022-10-31T09:18:58.984Z,98444.72
2022-10-31T09:49:18.569Z,98425.03
2022-10-31T10:19:33.116Z,98411.19
2022-10-31T10:49:43.153Z,98389.28
2022-10-31T11:19:47.338Z,98348.53
2022-10-31T11:49:51.665Z,98325.63
2022-10-31T12:20:04.064Z,98275.75
2022-10-31T12:50:18.882Z,98232.72
2022-10-31T13:20:29.569Z,98174.00
2022-10-31T13:50:34.966Z,98160.50
2022-10-31T14:20:43.085Z,98146.75
2022-10-31T14:50:52.434Z,98105.69
2022-10-31T15:20:57.755Z,98066.59
2022-10-31T15:51:03.294Z,98031.31
2022-10-31T16:21:08.177Z,97904.78
2022-10-31T16:51:12.621Z,97960.28
2022-10-31T17:21:19.706Z,97995.75
2022-10-31T17:51:23.724Z,97974.53
2022-10-31T18:21:28.288Z,97993.81
2022-10-31T18:51:32.441Z,97975.94
2022-10-31T19:21:36.556Z,97953.75
2022-10-31T19:51:40.674Z,97946.84
2022-10-31T20:21:45.086Z,97924.28
2022-10-31T20:51:49.319Z,97898.72
2022-10-31T21:21:53.174Z,97895.16
2022-10-31T21:51:57.371Z,97877.06
2022-10-31T22:22:01.570Z,97848.50
2022-10-31T22:52:05.867Z,97824.38
2022-10-31T23:22:09.982Z,97821.88
2022-10-31T23:52:15.051Z,97819.19
